Allenhurst, New Jersey
Current Conditions -  °F | °C
As of 6:55 PM on Monday 22 Dec 2014 (Local Time) from KBLM Reporting Station
Overcast Overcast  
Wind Chill: 43°   Ceiling: 1500
Heat Index: 43°   Visibility: 10mi
Dew Point: 36°   Wind: 3mph
Humidity: 76%   Direction: 350°N
Pressure: 30.19"   Gusts: NA
Location:  40.24°N, 74°W
Report Text: KBLM 222355Z AUTO 35003KT 10SM OVC015 06/02 A3019 RMK AO1 10060 20050 400600010 57003
Loading
Personal Weather Stations






























Interactive Weather Map New forecast layout! Learn more

10-Day Weather Forecast

Advertisements
Track Severe Weather on mobile